sensor_id;sensor_type;location;lat;lon;timestamp;temperature;humidity
20526;DHT22;10421;49.142;9.232;2023-06-01T00:00:13;21.20;52.20
20526;DHT22;10421;49.142;9.232;2023-06-01T00:02:40;21.20;52.40
20526;DHT22;10421;49.142;9.232;2023-06-01T00:05:07;21.20;52.40
20526;DHT22;10421;49.142;9.232;2023-06-01T00:07:34;21.20;52.40
20526;DHT22;10421;49.142;9.232;2023-06-01T00:10:03;21.20;52.50
20526;DHT22;10421;49.142;9.232;2023-06-01T00:12:30;21.20;52.50
20526;DHT22;10421;49.142;9.232;2023-06-01T00:14:56;21.20;52.70
20526;DHT22;10421;49.142;9.232;2023-06-01T00:17:23;21.20;52.80
20526;DHT22;10421;49.142;9.232;2023-06-01T00:19:50;21.20;52.90
20526;DHT22;10421;49.142;9.232;2023-06-01T00:22:18;21.20;52.90
20526;DHT22;10421;49.142;9.232;2023-06-01T00:24:45;21.20;52.90
20526;DHT22;10421;49.142;9.232;2023-06-01T00:27:13;21.20;53.00
20526;DHT22;10421;49.142;9.232;2023-06-01T00:29:40;21.20;52.90
20526;DHT22;10421;49.142;9.232;2023-06-01T00:32:07;21.20;53.00
20526;DHT22;10421;49.142;9.232;2023-06-01T00:34:33;21.30;53.10
20526;DHT22;10421;49.142;9.232;2023-06-01T00:37:00;21.30;53.20
20526;DHT22;10421;49.142;9.232;2023-06-01T00:39:27;21.30;53.10
20526;DHT22;10421;49.142;9.232;2023-06-01T00:41:53;21.30;53.10
20526;DHT22;10421;49.142;9.232;2023-06-01T00:44:21;21.30;53.10
20526;DHT22;10421;49.142;9.232;2023-06-01T00:46:50;21.30;53.10
20526;DHT22;10421;49.142;9.232;2023-06-01T00:49:17;21.30;53.10
20526;DHT22;10421;49.142;9.232;2023-06-01T00:51:43;21.30;53.20
20526;DHT22;10421;49.142;9.232;2023-06-01T00:54:10;21.30;53.20
20526;DHT22;10421;49.142;9.232;2023-06-01T00:56:37;21.20;53.30
20526;DHT22;10421;49.142;9.232;2023-06-01T00:59:05;21.20;53.80
20526;DHT22;10421;49.142;9.232;2023-06-01T01:01:33;21.20;54.50
20526;DHT22;10421;49.142;9.232;2023-06-01T01:04:01;21.20;54.80
20526;DHT22;10421;49.142;9.232;2023-06-01T01:06:39;21.20;54.90
20526;DHT22;10421;49.142;9.232;2023-06-01T01:09:17;21.10;55.00
20526;DHT22;10421;49.142;9.232;2023-06-01T01:11:52;21.10;55.30
20526;DHT22;10421;49.142;9.232;2023-06-01T01:14:25;21.10;55.50
20526;DHT22;10421;49.142;9.232;2023-06-01T01:17:01;21.10;55.50
20526;DHT22;10421;49.142;9.232;2023-06-01T01:19:53;21.00;55.60
20526;DHT22;10421;49.142;9.232;2023-06-01T01:22:39;21.00;55.80
20526;DHT22;10421;49.142;9.232;2023-06-01T01:25:20;20.90;55.90
20526;DHT22;10421;49.142;9.232;2023-06-01T01:28:06;20.90;56.00
20526;DHT22;10421;49.142;9.232;2023-06-01T01:30:37;20.90;56.00
20526;DHT22;10421;49.142;9.232;2023-06-01T01:33:04;20.80;56.10
20526;DHT22;10421;49.142;9.232;2023-06-01T01:35:32;20.80;56.30
20526;DHT22;10421;49.142;9.232;2023-06-01T01:37:59;20.80;56.30
20526;DHT22;10421;49.142;9.232;2023-06-01T01:40:26;20.80;56.60
20526;DHT22;10421;49.142;9.232;2023-06-01T01:42:53;20.70;56.60
20526;DHT22;10421;49.142;9.232;2023-06-01T01:45:20;20.70;56.70
20526;DHT22;10421;49.142;9.232;2023-06-01T01:47:54;20.70;56.90
20526;DHT22;10421;49.142;9.232;2023-06-01T01:50:22;20.70;57.00
20526;DHT22;10421;49.142;9.232;2023-06-01T01:52:53;20.60;57.20
20526;DHT22;10421;49.142;9.232;2023-06-01T01:55:23;20.60;57.10
20526;DHT22;10421;49.142;9.232;2023-06-01T01:57:51;20.50;57.10
20526;DHT22;10421;49.142;9.232;2023-06-01T02:00:18;20.50;57.10
20526;DHT22;10421;49.142;9.232;2023-06-01T02:02:45;20.50;57.20
20526;DHT22;10421;49.142;9.232;2023-06-01T02:05:14;20.40;57.10
20526;DHT22;10421;49.142;9.232;2023-06-01T02:07:40;20.40;57.00
20526;DHT22;10421;49.142;9.232;2023-06-01T02:10:07;20.40;57.00
20526;DHT22;10421;49.142;9.232;2023-06-01T02:12:34;20.30;56.90
20526;DHT22;10421;49.142;9.232;2023-06-01T02:15:01;20.30;56.90
20526;DHT22;10421;49.142;9.232;2023-06-01T02:17:28;20.30;56.80
20526;DHT22;10421;49.142;9.232;2023-06-01T02:19:54;20.30;57.00
20526;DHT22;10421;49.142;9.232;2023-06-01T02:22:22;20.30;57.10
20526;DHT22;10421;49.142;9.232;2023-06-01T02:24:49;20.30;57.40
20526;DHT22;10421;49.142;9.232;2023-06-01T02:27:16;20.20;57.40
20526;DHT22;10421;49.142;9.232;2023-06-01T02:29:42;20.20;57.60
20526;DHT22;10421;49.142;9.232;2023-06-01T02:32:09;20.20;57.60
20526;DHT22;10421;49.142;9.232;2023-06-01T02:34:36;20.20;57.70
20526;DHT22;10421;49.142;9.232;2023-06-01T02:37:03;20.20;57.70
20526;DHT22;10421;49.142;9.232;2023-06-01T02:39:31;20.10;57.50
20526;DHT22;10421;49.142;9.232;2023-06-01T02:41:58;20.10;57.60
20526;DHT22;10421;49.142;9.232;2023-06-01T02:44:24;20.10;57.60
20526;DHT22;10421;49.142;9.232;2023-06-01T02:46:51;20.10;57.60
20526;DHT22;10421;49.142;9.232;2023-06-01T02:49:18;20.10;57.70
20526;DHT22;10421;49.142;9.232;2023-06-01T02:51:45;20.10;57.80
20526;DHT22;10421;49.142;9.232;2023-06-01T02:54:12;20.00;57.80
20526;DHT22;10421;49.142;9.232;2023-06-01T02:56:40;20.00;57.80
20526;DHT22;10421;49.142;9.232;2023-06-01T02:59:06;20.00;57.90
20526;DHT22;10421;49.142;9.232;2023-06-01T03:01:33;20.00;57.90
20526;DHT22;10421;49.142;9.232;2023-06-01T03:04:01;20.00;58.00
20526;DHT22;10421;49.142;9.232;2023-06-01T03:06:29;20.00;58.00
20526;DHT22;10421;49.142;9.232;2023-06-01T03:08:57;20.00;58.10
20526;DHT22;10421;49.142;9.232;2023-06-01T03:11:23;19.90;58.10
20526;DHT22;10421;49.142;9.232;2023-06-01T03:13:52;19.90;58.10
20526;DHT22;10421;49.142;9.232;2023-06-01T03:16:18;19.90;58.20
20526;DHT22;10421;49.142;9.232;2023-06-01T03:18:45;19.90;58.20
20526;DHT22;10421;49.142;9.232;2023-06-01T03:21:12;19.90;58.30
20526;DHT22;10421;49.142;9.232;2023-06-01T03:23:38;19.90;58.30
20526;DHT22;10421;49.142;9.232;2023-06-01T03:26:09;19.90;58.30
20526;DHT22;10421;49.142;9.232;2023-06-01T03:28:37;19.80;58.30
20526;DHT22;10421;49.142;9.232;2023-06-01T03:31:06;19.80;58.30
20526;DHT22;10421;49.142;9.232;2023-06-01T03:33:36;19.70;58.30
20526;DHT22;10421;49.142;9.232;2023-06-01T03:36:03;19.80;58.50
20526;DHT22;10421;49.142;9.232;2023-06-01T03:38:30;19.70;58.60
20526;DHT22;10421;49.142;9.232;2023-06-01T03:40:56;19.70;58.60
20526;DHT22;10421;49.142;9.232;2023-06-01T03:43:23;19.70;58.70
20526;DHT22;10421;49.142;9.232;2023-06-01T03:45:50;19.70;58.80
20526;DHT22;10421;49.142;9.232;2023-06-01T03:48:19;19.60;58.80
20526;DHT22;10421;49.142;9.232;2023-06-01T03:50:46;19.50;59.00
20526;DHT22;10421;49.142;9.232;2023-06-01T03:53:12;19.50;59.10
20526;DHT22;10421;49.142;9.232;2023-06-01T03:55:39;19.40;59.30
20526;DHT22;10421;49.142;9.232;2023-06-01T03:58:06;19.40;59.30
20526;DHT22;10421;49.142;9.232;2023-06-01T04:00:33;19.40;59.50
20526;DHT22;10421;49.142;9.232;2023-06-01T04:03:01;19.40;59.60
20526;DHT22;10421;49.142;9.232;2023-06-01T04:05:33;19.50;59.90
20526;DHT22;10421;49.142;9.232;2023-06-01T04:08:01;19.50;60.00
20526;DHT22;10421;49.142;9.232;2023-06-01T04:10:28;19.50;60.10
20526;DHT22;10421;49.142;9.232;2023-06-01T04:12:55;19.50;60.30
20526;DHT22;10421;49.142;9.232;2023-06-01T04:15:22;19.50;60.50
20526;DHT22;10421;49.142;9.232;2023-06-01T04:17:49;19.50;60.50
20526;DHT22;10421;49.142;9.232;2023-06-01T04:20:16;19.50;60.40
20526;DHT22;10421;49.142;9.232;2023-06-01T04:22:46;19.50;60.40
20526;DHT22;10421;49.142;9.232;2023-06-01T04:25:15;19.60;60.50
20526;DHT22;10421;49.142;9.232;2023-06-01T04:27:44;19.60;60.50
20526;DHT22;10421;49.142;9.232;2023-06-01T04:30:11;19.70;60.70
20526;DHT22;10421;49.142;9.232;2023-06-01T04:32:39;19.80;60.80
20526;DHT22;10421;49.142;9.232;2023-06-01T04:35:08;19.80;60.70
20526;DHT22;10421;49.142;9.232;2023-06-01T04:37:36;19.80;60.60
20526;DHT22;10421;49.142;9.232;2023-06-01T04:40:06;19.90;60.70
20526;DHT22;10421;49.142;9.232;2023-06-01T04:42:33;19.90;60.70
20526;DHT22;10421;49.142;9.232;2023-06-01T04:45:00;19.90;60.80
20526;DHT22;10421;49.142;9.232;2023-06-01T04:47:30;20.00;61.00
20526;DHT22;10421;49.142;9.232;2023-06-01T04:49:56;20.00;60.90
20526;DHT22;10421;49.142;9.232;2023-06-01T04:52:23;20.00;60.90
20526;DHT22;10421;49.142;9.232;2023-06-01T04:54:50;20.10;61.10
20526;DHT22;10421;49.142;9.232;2023-06-01T04:57:18;20.00;61.20
20526;DHT22;10421;49.142;9.232;2023-06-01T04:59:45;20.10;61.20
20526;DHT22;10421;49.142;9.232;2023-06-01T05:02:11;20.10;61.30
20526;DHT22;10421;49.142;9.232;2023-06-01T05:04:38;20.20;61.30
20526;DHT22;10421;49.142;9.232;2023-06-01T05:07:05;20.20;61.20
20526;DHT22;10421;49.142;9.232;2023-06-01T05:09:32;20.20;61.00
20526;DHT22;10421;49.142;9.232;2023-06-01T05:11:59;20.20;60.50
20526;DHT22;10421;49.142;9.232;2023-06-01T05:14:27;20.30;60.30
20526;DHT22;10421;49.142;9.232;2023-06-01T05:16:53;20.30;60.10
20526;DHT22;10421;49.142;9.232;2023-06-01T05:19:20;20.30;60.00
20526;DHT22;10421;49.142;9.232;2023-06-01T05:21:47;20.30;59.90
20526;DHT22;10421;49.142;9.232;2023-06-01T05:24:14;20.30;60.00
20526;DHT22;10421;49.142;9.232;2023-06-01T05:26:41;20.30;60.10
20526;DHT22;10421;49.142;9.232;2023-06-01T05:29:07;20.30;60.10
20526;DHT22;10421;49.142;9.232;2023-06-01T05:31:35;20.40;60.10
20526;DHT22;10421;49.142;9.232;2023-06-01T05:34:02;20.30;60.10
20526;DHT22;10421;49.142;9.232;2023-06-01T05:36:29;20.40;60.10
20526;DHT22;10421;49.142;9.232;2023-06-01T05:38:57;20.30;60.00
20526;DHT22;10421;49.142;9.232;2023-06-01T05:41:24;20.40;60.20
20526;DHT22;10421;49.142;9.232;2023-06-01T05:43:51;20.40;60.20
20526;DHT22;10421;49.142;9.232;2023-06-01T05:46:18;20.40;60.00
20526;DHT22;10421;49.142;9.232;2023-06-01T05:48:46;20.40;59.90
20526;DHT22;10421;49.142;9.232;2023-06-01T05:51:13;20.50;59.90
20526;DHT22;10421;49.142;9.232;2023-06-01T05:53:41;20.50;60.00
20526;DHT22;10421;49.142;9.232;2023-06-01T05:56:07;20.60;60.00
20526;DHT22;10421;49.142;9.232;2023-06-01T05:58:34;20.60;59.90
20526;DHT22;10421;49.142;9.232;2023-06-01T06:01:01;20.60;59.90
20526;DHT22;10421;49.142;9.232;2023-06-01T06:03:28;20.70;59.90
20526;DHT22;10421;49.142;9.232;2023-06-01T06:05:56;20.70;59.80
20526;DHT22;10421;49.142;9.232;2023-06-01T06:08:23;20.70;59.90
20526;DHT22;10421;49.142;9.232;2023-06-01T06:10:50;20.80;59.80
20526;DHT22;10421;49.142;9.232;2023-06-01T06:13:16;20.90;59.90
20526;DHT22;10421;49.142;9.232;2023-06-01T06:15:43;20.90;60.00
20526;DHT22;10421;49.142;9.232;2023-06-01T06:18:10;20.90;60.00
20526;DHT22;10421;49.142;9.232;2023-06-01T06:20:37;20.90;59.90
20526;DHT22;10421;49.142;9.232;2023-06-01T06:23:05;20.90;59.80
20526;DHT22;10421;49.142;9.232;2023-06-01T06:25:32;20.90;59.90
20526;DHT22;10421;49.142;9.232;2023-06-01T06:27:58;20.90;59.80
20526;DHT22;10421;49.142;9.232;2023-06-01T06:30:25;21.00;60.00
20526;DHT22;10421;49.142;9.232;2023-06-01T06:32:52;21.10;60.10
20526;DHT22;10421;49.142;9.232;2023-06-01T06:35:18;21.10;59.90
20526;DHT22;10421;49.142;9.232;2023-06-01T06:37:45;21.10;59.90
20526;DHT22;10421;49.142;9.232;2023-06-01T06:40:13;21.20;59.90
20526;DHT22;10421;49.142;9.232;2023-06-01T06:42:40;21.30;59.80
20526;DHT22;10421;49.142;9.232;2023-06-01T06:45:08;21.40;59.70
20526;DHT22;10421;49.142;9.232;2023-06-01T06:47:34;21.50;59.60
20526;DHT22;10421;49.142;9.232;2023-06-01T06:50:01;21.50;59.60
20526;DHT22;10421;49.142;9.232;2023-06-01T06:52:28;21.50;59.60
20526;DHT22;10421;49.142;9.232;2023-06-01T06:54:55;21.60;59.70
20526;DHT22;10421;49.142;9.232;2023-06-01T06:57:23;21.70;59.70
20526;DHT22;10421;49.142;9.232;2023-06-01T06:59:50;21.80;59.70
20526;DHT22;10421;49.142;9.232;2023-06-01T07:02:17;21.90;59.50
20526;DHT22;10421;49.142;9.232;2023-06-01T07:04:44;22.00;59.20
20526;DHT22;10421;49.142;9.232;2023-06-01T07:07:11;22.20;59.00
20526;DHT22;10421;49.142;9.232;2023-06-01T07:09:37;22.30;58.90
20526;DHT22;10421;49.142;9.232;2023-06-01T07:12:05;22.30;59.00
20526;DHT22;10421;49.142;9.232;2023-06-01T07:14:34;22.30;59.00
20526;DHT22;10421;49.142;9.232;2023-06-01T07:17:01;22.40;58.80
20526;DHT22;10421;49.142;9.232;2023-06-01T07:19:28;22.50;58.60
20526;DHT22;10421;49.142;9.232;2023-06-01T07:21:58;22.60;58.50
20526;DHT22;10421;49.142;9.232;2023-06-01T07:24:26;22.70;58.30
20526;DHT22;10421;49.142;9.232;2023-06-01T07:26:53;22.80;58.10
20526;DHT22;10421;49.142;9.232;2023-06-01T07:29:21;22.80;57.80
20526;DHT22;10421;49.142;9.232;2023-06-01T07:31:50;22.90;57.80
20526;DHT22;10421;49.142;9.232;2023-06-01T07:34:16;23.00;57.80
20526;DHT22;10421;49.142;9.232;2023-06-01T07:36:44;23.20;57.90
20526;DHT22;10421;49.142;9.232;2023-06-01T07:39:11;23.30;57.40
20526;DHT22;10421;49.142;9.232;2023-06-01T07:41:38;23.40;57.30
20526;DHT22;10421;49.142;9.232;2023-06-01T07:44:05;23.50;57.40
20526;DHT22;10421;49.142;9.232;2023-06-01T07:46:33;23.60;57.20
20526;DHT22;10421;49.142;9.232;2023-06-01T07:49:01;23.70;57.00
20526;DHT22;10421;49.142;9.232;2023-06-01T07:51:28;23.80;57.00
20526;DHT22;10421;49.142;9.232;2023-06-01T07:53:56;23.90;57.00
20526;DHT22;10421;49.142;9.232;2023-06-01T07:56:25;24.00;57.00
20526;DHT22;10421;49.142;9.232;2023-06-01T07:58:52;24.20;56.70
20526;DHT22;10421;49.142;9.232;2023-06-01T08:01:19;24.30;56.30
20526;DHT22;10421;49.142;9.232;2023-06-01T08:03:45;24.40;56.20
20526;DHT22;10421;49.142;9.232;2023-06-01T08:06:14;24.40;56.20
20526;DHT22;10421;49.142;9.232;2023-06-01T08:08:41;24.60;56.10
20526;DHT22;10421;49.142;9.232;2023-06-01T08:11:08;24.70;55.90
20526;DHT22;10421;49.142;9.232;2023-06-01T08:13:35;24.80;55.50
20526;DHT22;10421;49.142;9.232;2023-06-01T08:16:02;25.00;55.60
20526;DHT22;10421;49.142;9.232;2023-06-01T08:18:29;25.00;55.60
20526;DHT22;10421;49.142;9.232;2023-06-01T08:20:55;25.10;55.30
20526;DHT22;10421;49.142;9.232;2023-06-01T08:23:23;25.20;55.30
20526;DHT22;10421;49.142;9.232;2023-06-01T08:25:50;25.30;54.90
20526;DHT22;10421;49.142;9.232;2023-06-01T08:28:17;25.40;54.40
20526;DHT22;10421;49.142;9.232;2023-06-01T08:30:43;25.50;54.10
20526;DHT22;10421;49.142;9.232;2023-06-01T08:33:10;25.60;54.40
20526;DHT22;10421;49.142;9.232;2023-06-01T08:35:37;25.70;54.50
20526;DHT22;10421;49.142;9.232;2023-06-01T08:38:03;25.90;54.60
20526;DHT22;10421;49.142;9.232;2023-06-01T08:40:32;26.00;54.40
20526;DHT22;10421;49.142;9.232;2023-06-01T08:43:02;26.10;54.10
20526;DHT22;10421;49.142;9.232;2023-06-01T08:45:32;26.20;54.00
20526;DHT22;10421;49.142;9.232;2023-06-01T08:47:58;26.30;53.90
20526;DHT22;10421;49.142;9.232;2023-06-01T08:50:26;26.40;54.00
20526;DHT22;10421;49.142;9.232;2023-06-01T08:52:53;26.50;53.90
20526;DHT22;10421;49.142;9.232;2023-06-01T08:55:22;26.60;53.70
20526;DHT22;10421;49.142;9.232;2023-06-01T08:57:51;26.80;53.70
20526;DHT22;10421;49.142;9.232;2023-06-01T09:00:18;26.90;53.20
20526;DHT22;10421;49.142;9.232;2023-06-01T09:02:46;27.00;52.20
20526;DHT22;10421;49.142;9.232;2023-06-01T09:05:13;27.10;51.90
20526;DHT22;10421;49.142;9.232;2023-06-01T09:07:40;27.20;52.00
20526;DHT22;10421;49.142;9.232;2023-06-01T09:10:07;27.30;51.90
20526;DHT22;10421;49.142;9.232;2023-06-01T09:12:34;27.40;51.90
20526;DHT22;10421;49.142;9.232;2023-06-01T09:15:10;27.50;52.00
20526;DHT22;10421;49.142;9.232;2023-06-01T09:17:37;27.60;51.90
20526;DHT22;10421;49.142;9.232;2023-06-01T09:20:05;27.70;51.60
20526;DHT22;10421;49.142;9.232;2023-06-01T09:22:39;27.80;51.50
20526;DHT22;10421;49.142;9.232;2023-06-01T09:25:06;27.90;50.90
20526;DHT22;10421;49.142;9.232;2023-06-01T09:27:45;28.00;50.80
20526;DHT22;10421;49.142;9.232;2023-06-01T09:30:15;28.20;50.90
20526;DHT22;10421;49.142;9.232;2023-06-01T09:32:42;28.20;50.70
20526;DHT22;10421;49.142;9.232;2023-06-01T09:35:13;28.30;50.50
20526;DHT22;10421;49.142;9.232;2023-06-01T09:37:54;28.40;49.70
20526;DHT22;10421;49.142;9.232;2023-06-01T09:40:21;28.50;49.60
20526;DHT22;10421;49.142;9.232;2023-06-01T09:42:48;28.70;49.40
20526;DHT22;10421;49.142;9.232;2023-06-01T09:45:19;28.70;48.90
20526;DHT22;10421;49.142;9.232;2023-06-01T09:47:46;28.80;49.00
20526;DHT22;10421;49.142;9.232;2023-06-01T09:50:32;28.80;48.60
20526;DHT22;10421;49.142;9.232;2023-06-01T09:52:59;28.80;48.80
20526;DHT22;10421;49.142;9.232;2023-06-01T09:55:26;28.90;48.90
20526;DHT22;10421;49.142;9.232;2023-06-01T09:58:16;29.10;48.90
20526;DHT22;10421;49.142;9.232;2023-06-01T10:00:45;29.20;49.50
20526;DHT22;10421;49.142;9.232;2023-06-01T10:03:13;29.30;48.70
20526;DHT22;10421;49.142;9.232;2023-06-01T10:05:41;29.30;48.70
20526;DHT22;10421;49.142;9.232;2023-06-01T10:08:10;29.40;48.80
20526;DHT22;10421;49.142;9.232;2023-06-01T10:10:37;29.40;48.40
20526;DHT22;10421;49.142;9.232;2023-06-01T10:13:04;29.50;48.20
20526;DHT22;10421;49.142;9.232;2023-06-01T10:15:32;29.60;47.90
20526;DHT22;10421;49.142;9.232;2023-06-01T10:18:00;29.70;47.90
20526;DHT22;10421;49.142;9.232;2023-06-01T10:20:28;29.80;46.20
20526;DHT22;10421;49.142;9.232;2023-06-01T10:22:56;29.80;45.80
20526;DHT22;10421;49.142;9.232;2023-06-01T10:25:24;29.90;45.30
20526;DHT22;10421;49.142;9.232;2023-06-01T10:27:55;30.00;44.90
20526;DHT22;10421;49.142;9.232;2023-06-01T10:30:24;30.00;44.00
20526;DHT22;10421;49.142;9.232;2023-06-01T10:32:51;30.00;43.00
20526;DHT22;10421;49.142;9.232;2023-06-01T10:38:32;30.20;42.30
20526;DHT22;10421;49.142;9.232;2023-06-01T10:41:27;30.30;42.40
20526;DHT22;10421;49.142;9.232;2023-06-01T10:43:55;30.50;41.80
20526;DHT22;10421;49.142;9.232;2023-06-01T10:46:40;30.50;41.50
20526;DHT22;10421;49.142;9.232;2023-06-01T10:49:07;30.50;41.20
20526;DHT22;10421;49.142;9.232;2023-06-01T10:51:34;30.60;41.40
20526;DHT22;10421;49.142;9.232;2023-06-01T10:54:30;30.60;41.60
20526;DHT22;10421;49.142;9.232;2023-06-01T10:57:24;30.70;41.70
20526;DHT22;10421;49.142;9.232;2023-06-01T11:00:10;30.90;41.80
20526;DHT22;10421;49.142;9.232;2023-06-01T11:02:46;31.00;41.00
20526;DHT22;10421;49.142;9.232;2023-06-01T11:05:42;31.00;40.50
20526;DHT22;10421;49.142;9.232;2023-06-01T11:12:00;31.10;38.40
20526;DHT22;10421;49.142;9.232;2023-06-01T11:14:28;31.10;38.00
20526;DHT22;10421;49.142;9.232;2023-06-01T11:17:26;31.10;38.10
20526;DHT22;10421;49.142;9.232;2023-06-01T11:19:57;31.20;38.80
20526;DHT22;10421;49.142;9.232;2023-06-01T11:22:27;31.30;39.60
20526;DHT22;10421;49.142;9.232;2023-06-01T11:25:04;31.40;40.10
20526;DHT22;10421;49.142;9.232;2023-06-01T11:27:33;31.50;40.40
20526;DHT22;10421;49.142;9.232;2023-06-01T11:30:01;31.60;40.50
20526;DHT22;10421;49.142;9.232;2023-06-01T11:32:29;31.60;40.30
20526;DHT22;10421;49.142;9.232;2023-06-01T11:34:57;31.70;40.20
20526;DHT22;10421;49.142;9.232;2023-06-01T11:37:25;31.80;40.30
20526;DHT22;10421;49.142;9.232;2023-06-01T11:40:04;31.80;39.50
20526;DHT22;10421;49.142;9.232;2023-06-01T11:42:35;31.80;39.40
20526;DHT22;10421;49.142;9.232;2023-06-01T11:45:03;31.80;39.40
20526;DHT22;10421;49.142;9.232;2023-06-01T11:47:30;31.80;39.30
20526;DHT22;10421;49.142;9.232;2023-06-01T11:49:57;31.80;39.00
20526;DHT22;10421;49.142;9.232;2023-06-01T11:52:24;31.90;39.30
20526;DHT22;10421;49.142;9.232;2023-06-01T11:54:51;31.90;38.50
20526;DHT22;10421;49.142;9.232;2023-06-01T11:57:18;31.90;38.40
20526;DHT22;10421;49.142;9.232;2023-06-01T11:59:47;31.90;38.40
20526;DHT22;10421;49.142;9.232;2023-06-01T12:02:19;31.90;37.70
20526;DHT22;10421;49.142;9.232;2023-06-01T12:04:56;31.90;36.90
20526;DHT22;10421;49.142;9.232;2023-06-01T12:07:25;31.90;37.00
20526;DHT22;10421;49.142;9.232;2023-06-01T12:09:52;31.90;37.10
20526;DHT22;10421;49.142;9.232;2023-06-01T12:12:21;31.90;36.80
20526;DHT22;10421;49.142;9.232;2023-06-01T12:14:50;31.90;36.10
20526;DHT22;10421;49.142;9.232;2023-06-01T12:17:17;31.90;35.90
20526;DHT22;10421;49.142;9.232;2023-06-01T12:19:45;31.90;35.90
20526;DHT22;10421;49.142;9.232;2023-06-01T12:22:13;32.00;36.20
20526;DHT22;10421;49.142;9.232;2023-06-01T12:24:40;32.10;35.80
20526;DHT22;10421;49.142;9.232;2023-06-01T12:27:13;32.10;35.50
20526;DHT22;10421;49.142;9.232;2023-06-01T12:29:42;32.20;35.50
20526;DHT22;10421;49.142;9.232;2023-06-01T12:32:11;32.30;35.10
20526;DHT22;10421;49.142;9.232;2023-06-01T12:34:41;32.40;35.20
20526;DHT22;10421;49.142;9.232;2023-06-01T12:37:14;32.40;34.90
20526;DHT22;10421;49.142;9.232;2023-06-01T12:39:40;32.40;35.00
20526;DHT22;10421;49.142;9.232;2023-06-01T12:42:08;32.50;34.90
20526;DHT22;10421;49.142;9.232;2023-06-01T12:44:36;32.50;34.80
20526;DHT22;10421;49.142;9.232;2023-06-01T12:47:03;32.50;34.80
20526;DHT22;10421;49.142;9.232;2023-06-01T12:49:31;32.70;34.70
20526;DHT22;10421;49.142;9.232;2023-06-01T12:51:58;32.70;33.80
20526;DHT22;10421;49.142;9.232;2023-06-01T12:54:26;32.70;33.80
20526;DHT22;10421;49.142;9.232;2023-06-01T12:56:53;32.70;33.70
20526;DHT22;10421;49.142;9.232;2023-06-01T12:59:20;32.60;33.90
20526;DHT22;10421;49.142;9.232;2023-06-01T13:01:47;32.50;33.80
20526;DHT22;10421;49.142;9.232;2023-06-01T13:04:14;32.50;33.90
20526;DHT22;10421;49.142;9.232;2023-06-01T13:06:42;32.50;34.10
20526;DHT22;10421;49.142;9.232;2023-06-01T13:09:10;32.60;34.50
20526;DHT22;10421;49.142;9.232;2023-06-01T13:11:36;32.70;34.70
20526;DHT22;10421;49.142;9.232;2023-06-01T13:14:03;32.90;34.40
20526;DHT22;10421;49.142;9.232;2023-06-01T13:16:30;32.90;34.10
20526;DHT22;10421;49.142;9.232;2023-06-01T13:18:57;33.00;34.50
20526;DHT22;10421;49.142;9.232;2023-06-01T13:21:23;33.00;34.40
20526;DHT22;10421;49.142;9.232;2023-06-01T13:23:51;33.10;34.40
20526;DHT22;10421;49.142;9.232;2023-06-01T13:26:18;33.20;34.30
20526;DHT22;10421;49.142;9.232;2023-06-01T13:28:47;33.20;34.10
20526;DHT22;10421;49.142;9.232;2023-06-01T13:31:14;33.30;34.50
20526;DHT22;10421;49.142;9.232;2023-06-01T13:33:41;33.40;34.50
20526;DHT22;10421;49.142;9.232;2023-06-01T13:36:09;33.50;34.00
20526;DHT22;10421;49.142;9.232;2023-06-01T13:38:35;33.40;34.00
20526;DHT22;10421;49.142;9.232;2023-06-01T13:41:03;33.40;33.70
20526;DHT22;10421;49.142;9.232;2023-06-01T13:43:30;33.40;34.00
20526;DHT22;10421;49.142;9.232;2023-06-01T13:45:57;33.30;33.50
20526;DHT22;10421;49.142;9.232;2023-06-01T13:48:23;33.30;33.50
20526;DHT22;10421;49.142;9.232;2023-06-01T13:50:50;33.40;33.20
20526;DHT22;10421;49.142;9.232;2023-06-01T13:53:18;33.40;33.50
20526;DHT22;10421;49.142;9.232;2023-06-01T13:55:45;33.50;33.50
20526;DHT22;10421;49.142;9.232;2023-06-01T13:58:13;33.50;33.50
20526;DHT22;10421;49.142;9.232;2023-06-01T14:00:41;33.50;33.00
20526;DHT22;10421;49.142;9.232;2023-06-01T14:03:07;33.50;32.70
20526;DHT22;10421;49.142;9.232;2023-06-01T14:05:34;33.50;32.80
20526;DHT22;10421;49.142;9.232;2023-06-01T14:08:01;33.60;33.40
20526;DHT22;10421;49.142;9.232;2023-06-01T14:10:30;33.60;33.40
20526;DHT22;10421;49.142;9.232;2023-06-01T14:12:56;33.70;33.20
20526;DHT22;10421;49.142;9.232;2023-06-01T14:15:24;33.60;32.80
20526;DHT22;10421;49.142;9.232;2023-06-01T14:17:51;33.70;32.30
20526;DHT22;10421;49.142;9.232;2023-06-01T14:20:18;33.60;32.20
20526;DHT22;10421;49.142;9.232;2023-06-01T14:22:45;33.60;32.30
20526;DHT22;10421;49.142;9.232;2023-06-01T14:25:12;33.60;31.80
20526;DHT22;10421;49.142;9.232;2023-06-01T14:27:39;33.50;31.80
20526;DHT22;10421;49.142;9.232;2023-06-01T14:30:07;33.50;31.60
20526;DHT22;10421;49.142;9.232;2023-06-01T14:32:35;33.50;32.10
20526;DHT22;10421;49.142;9.232;2023-06-01T14:35:05;33.50;32.20
20526;DHT22;10421;49.142;9.232;2023-06-01T14:37:34;33.50;31.60
20526;DHT22;10421;49.142;9.232;2023-06-01T14:40:01;33.50;31.50
20526;DHT22;10421;49.142;9.232;2023-06-01T14:42:27;33.30;32.50
20526;DHT22;10421;49.142;9.232;2023-06-01T14:44:54;33.30;32.70
20526;DHT22;10421;49.142;9.232;2023-06-01T14:47:21;33.40;32.90
20526;DHT22;10421;49.142;9.232;2023-06-01T14:49:58;33.30;32.50
20526;DHT22;10421;49.142;9.232;2023-06-01T14:52:25;33.40;32.60
20526;DHT22;10421;49.142;9.232;2023-06-01T14:54:51;33.40;32.20
20526;DHT22;10421;49.142;9.232;2023-06-01T14:57:18;33.50;32.40
20526;DHT22;10421;49.142;9.232;2023-06-01T14:59:46;33.50;32.60
20526;DHT22;10421;49.142;9.232;2023-06-01T15:02:12;33.60;32.90
20526;DHT22;10421;49.142;9.232;2023-06-01T15:04:39;33.60;32.70
20526;DHT22;10421;49.142;9.232;2023-06-01T15:07:07;33.50;33.10
20526;DHT22;10421;49.142;9.232;2023-06-01T15:09:34;33.40;32.90
20526;DHT22;10421;49.142;9.232;2023-06-01T15:12:03;33.40;33.50
20526;DHT22;10421;49.142;9.232;2023-06-01T15:14:30;33.40;33.70
20526;DHT22;10421;49.142;9.232;2023-06-01T15:17:00;33.40;33.70
20526;DHT22;10421;49.142;9.232;2023-06-01T15:19:27;33.40;33.70
20526;DHT22;10421;49.142;9.232;2023-06-01T15:21:53;33.40;33.80
20526;DHT22;10421;49.142;9.232;2023-06-01T15:24:21;33.40;33.50
20526;DHT22;10421;49.142;9.232;2023-06-01T15:26:51;33.40;33.30
20526;DHT22;10421;49.142;9.232;2023-06-01T15:29:17;33.40;33.50
20526;DHT22;10421;49.142;9.232;2023-06-01T15:31:45;33.50;33.30
20526;DHT22;10421;49.142;9.232;2023-06-01T15:34:11;33.50;33.20
20526;DHT22;10421;49.142;9.232;2023-06-01T15:36:38;33.50;33.10
20526;DHT22;10421;49.142;9.232;2023-06-01T15:39:05;33.50;33.30
20526;DHT22;10421;49.142;9.232;2023-06-01T15:41:33;33.50;33.50
20526;DHT22;10421;49.142;9.232;2023-06-01T15:44:00;33.50;33.50